York, Maine
Current Conditions -  °F | °C
As of 2:58 AM on Sunday 26 Oct 2014 (Local Time) from KPSM Reporting Station
Overcast Overcast  
Wind Chill: 52°   Ceiling: 20000
Heat Index: 52°   Visibility: 10mi
Dew Point: 44°   Wind: 6mph
Humidity: 76%   Direction: 220°SW
Pressure: 29.42"   Gusts: NA
Location:  43.15°N, 70.65°W
Report Text: KPSM 260658Z 22005KT 10SM OVC200 11/07 A2942 RMK AO2A SLP966 T01090068
Loading
Personal Weather Stations






























Interactive Weather Map New forecast layout! Learn more

10-Day Weather Forecast

Advertisements
Track Severe Weather on mobile